Time;durP1;ratioP1;P1;durP2;ratioP2;P2;SDS_P1;SDS_P2;PMS_P1;PMS_P2;Temp;Humidity;BMP_temperature;BMP_pressure;BME280_temperature;BME280_humidity;BME280_pressure;Samples;Min_cycle;Max_cycle;Signal;HPM_P1;HPM_P2
2022/07/16 00:03:17;;;;;;;7.53;3.28;;;640.00;1408.00;;;;;;5096115;28;20031;-75
2022/07/16 00:05:44;;;;;;;6.43;3.90;;;640.10;1408.00;;;;;;5095749;28;20020;-75
2022/07/16 00:08:10;;;;;;;13.65;3.22;;;640.00;1433.60;;;;;;5095718;28;20028;-75
2022/07/16 00:10:36;;;;;;;8.98;3.33;;;640.00;1433.60;;;;;;5106972;28;20086;-76
2022/07/16 00:13:02;;;;;;;7.43;3.13;;;640.00;1433.60;;;;;;5077246;28;20035;-76
2022/07/16 00:15:29;;;;;;;12.00;3.35;;;615.30;1433.60;;;;;;5095587;28;20423;-76
2022/07/16 00:20:40;;;;;;;10.80;3.35;;;615.30;1459.20;;;;;;5095208;28;20045;-75
2022/07/16 00:23:06;;;;;;;10.40;3.25;;;615.30;1459.20;;;;;;5095321;28;20016;-75
2022/07/16 00:25:33;;;;;;;6.57;3.28;;;615.20;1484.80;;;;;;5095318;28;20028;-73
2022/07/16 00:27:59;;;;;;;7.18;3.17;;;615.10;1484.80;;;;;;5095317;28;20424;-75
2022/07/16 00:30:25;;;;;;;10.80;3.42;;;614.90;1510.40;;;;;;5092563;28;20016;-75
2022/07/16 00:32:51;;;;;;;6.65;3.42;;;615.00;1536.00;;;;;;5095331;28;20020;-74
2022/07/16 00:35:17;;;;;;;6.97;3.25;;;614.80;1561.60;;;;;;5095283;28;20070;-75
2022/07/16 00:37:42;;;;;;;6.75;3.40;;;614.80;1587.20;;;;;;5076337;28;20043;-75
2022/07/16 00:40:08;;;;;;;6.32;3.03;;;614.80;1587.20;;;;;;5076788;28;20028;-75
2022/07/16 00:42:34;;;;;;;8.55;3.30;;;614.70;1612.80;;;;;;5095150;28;20016;-75
2022/07/16 00:45:00;;;;;;;12.23;3.47;;;614.80;1612.80;;;;;;5094960;28;20385;-75
2022/07/16 00:47:25;;;;;;;10.73;4.18;;;614.80;1612.80;;;;;;5074189;28;20028;-75
2022/07/16 00:49:51;;;;;;;7.68;3.42;;;614.80;1612.80;;;;;;5095098;28;20069;-75
2022/07/16 00:52:17;;;;;;;10.10;3.47;;;614.90;1612.80;;;;;;5076995;28;20436;-76
2022/07/16 00:54:43;;;;;;;12.15;3.50;;;614.90;1587.20;;;;;;5105684;28;20027;-76
2022/07/16 00:57:09;;;;;;;15.15;3.70;;;614.90;1587.20;;;;;;5094545;28;20482;-76
2022/07/16 00:59:34;;;;;;;9.23;3.33;;;615.00;1587.20;;;;;;5094662;28;20017;-76
2022/07/16 01:02:00;;;;;;;9.98;3.58;;;615.00;1561.60;;;;;;5094765;28;20020;-75
2022/07/16 01:04:26;;;;;;;16.40;3.38;;;615.00;1561.60;;;;;;5094890;28;20087;-76
2022/07/16 01:06:53;;;;;;;11.38;2.97;;;615.00;1561.60;;;;;;5076400;28;20032;-75
2022/07/16 01:09:20;;;;;;;9.18;3.42;;;615.00;1536.00;;;;;;5094697;28;20012;-76
2022/07/16 01:11:47;;;;;;;8.32;3.22;;;615.00;1536.00;;;;;;5094477;28;20070;-75
2022/07/16 01:14:14;;;;;;;12.90;3.83;;;615.00;1536.00;;;;;;5095960;28;20020;-75
2022/07/16 01:16:40;;;;;;;13.82;3.33;;;614.90;1536.00;;;;;;5104018;28;20035;-75
2022/07/16 01:19:08;;;;;;;13.85;4.10;;;615.00;1536.00;;;;;;5094917;28;20016;-75
2022/07/16 01:21:34;;;;;;;7.53;4.10;;;615.00;1536.00;;;;;;5081056;28;20028;-75
2022/07/16 01:24:00;;;;;;;7.32;3.47;;;614.90;1561.60;;;;;;5094703;28;20027;-76
2022/07/16 01:26:26;;;;;;;12.40;4.00;;;614.90;1561.60;;;;;;5094518;28;20023;-74
2022/07/16 01:28:52;;;;;;;19.00;3.85;;;614.90;1536.00;;;;;;5094547;28;20028;-75
2022/07/16 01:31:17;;;;;;;7.82;3.58;;;614.80;1536.00;;;;;;5094454;28;20031;-75
2022/07/16 01:33:43;;;;;;;9.02;3.60;;;614.80;1561.60;;;;;;5094643;28;20024;-75
2022/07/16 01:36:12;;;;;;;7.20;3.42;;;614.90;1561.60;;;;;;5062019;28;20402;-74
2022/07/16 01:38:41;;;;;;;10.85;3.38;;;614.90;1536.00;;;;;;5094545;28;20031;-76
2022/07/16 01:41:07;;;;;;;9.80;3.67;;;614.90;1536.00;;;;;;5094394;28;20020;-75
2022/07/16 01:43:33;;;;;;;7.63;3.70;;;614.90;1536.00;;;;;;5076031;28;20024;-75
2022/07/16 01:45:59;;;;;;;7.13;3.33;;;614.90;1536.00;;;;;;5094229;28;20024;-76
2022/07/16 01:48:26;;;;;;;14.10;3.38;;;614.90;1536.00;;;;;;5093632;28;20020;-76
2022/07/16 01:50:53;;;;;;;5.88;3.45;;;615.00;1536.00;;;;;;5093787;28;20103;-76
2022/07/16 01:53:19;;;;;;;15.95;4.20;;;615.00;1536.00;;;;;;5094104;28;20020;-76
2022/07/16 01:55:45;;;;;;;12.00;4.60;;;614.60;1536.00;;;;;;5093679;28;20063;-76
2022/07/16 01:58:13;;;;;;;11.82;3.78;;;614.50;1561.60;;;;;;5108316;28;20487;-75
2022/07/16 02:00:43;;;;;;;10.07;3.97;;;614.70;1536.00;;;;;;5082775;28;20031;-76
2022/07/16 02:03:09;;;;;;;7.53;3.78;;;614.80;1536.00;;;;;;5091488;28;20023;-76
2022/07/16 02:05:35;;;;;;;14.35;3.75;;;614.80;1536.00;;;;;;5066205;28;20474;-76
2022/07/16 02:08:02;;;;;;;9.45;3.95;;;614.80;1536.00;;;;;;5087845;28;20020;-75
2022/07/16 02:10:28;;;;;;;9.52;3.40;;;614.70;1536.00;;;;;;5081487;28;20028;-76
2022/07/16 02:12:53;;;;;;;16.23;3.67;;;614.60;1536.00;;;;;;5061641;28;20477;-75
2022/07/16 02:15:19;;;;;;;9.75;3.90;;;614.60;1510.40;;;;;;5093567;28;20029;-75
2022/07/16 02:17:45;;;;;;;14.10;3.95;;;614.40;1510.40;;;;;;5093775;28;20114;-75
2022/07/16 02:20:11;;;;;;;9.48;3.95;;;589.70;1510.40;;;;;;5093636;28;20386;-76
2022/07/16 02:22:38;;;;;;;6.30;3.08;;;614.40;1510.40;;;;;;5093678;28;20424;-76
2022/07/16 02:25:06;;;;;;;12.82;3.22;;;589.70;1510.40;;;;;;5093424;28;20045;-76
2022/07/16 02:27:31;;;;;;;13.65;3.38;;;589.70;1484.80;;;;;;5067022;28;20031;-75
2022/07/16 02:29:59;;;;;;;11.68;3.20;;;589.70;1484.80;;;;;;5087550;28;20016;-75
2022/07/16 02:32:25;;;;;;;7.55;4.00;;;589.70;1484.80;;;;;;5093587;28;20032;-76
2022/07/16 02:34:51;;;;;;;13.50;4.22;;;614.40;1484.80;;;;;;5093578;28;20052;-76
2022/07/16 02:37:17;;;;;;;14.60;6.45;;;614.50;1459.20;;;;;;5107608;28;20557;-76
2022/07/16 02:39:42;;;;;;;10.38;5.75;;;614.60;1433.60;;;;;;5093621;28;20020;-76
2022/07/16 02:42:08;;;;;;;9.15;4.97;;;614.50;1433.60;;;;;;5092005;28;20028;-76
2022/07/16 02:44:34;;;;;;;7.63;4.18;;;614.60;1433.60;;;;;;5093236;28;20488;-75
2022/07/16 02:47:00;;;;;;;8.57;3.42;;;614.70;1382.40;;;;;;5093182;28;20039;-76
2022/07/16 02:49:25;;;;;;;6.38;2.92;;;614.70;1382.40;;;;;;5093538;28;20020;-76
2022/07/16 02:51:51;;;;;;;6.30;2.92;;;614.80;1356.80;;;;;;5080593;28;20103;-75
2022/07/16 02:54:17;;;;;;;7.85;2.90;;;614.80;1356.80;;;;;;5091728;28;20035;-75
2022/07/16 02:56:43;;;;;;;8.55;3.00;;;614.90;1356.80;;;;;;5099740;28;20044;-75
2022/07/16 02:59:08;;;;;;;5.60;2.83;;;615.00;1331.20;;;;;;5069840;28;20025;-75
2022/07/16 03:01:34;;;;;;;6.80;3.45;;;615.00;1356.80;;;;;;5097003;28;20054;-75
2022/07/16 03:04:00;;;;;;;8.23;3.08;;;614.90;1356.80;;;;;;5100167;28;20024;-75
2022/07/16 03:06:26;;;;;;;5.47;2.90;;;614.90;1356.80;;;;;;5099854;28;20036;-75
2022/07/16 03:08:52;;;;;;;10.20;3.25;;;614.80;1382.40;;;;;;5100510;28;20024;-75
2022/07/16 03:11:17;;;;;;;9.18;3.47;;;614.80;1408.00;;;;;;5099725;28;20031;-74
2022/07/16 03:13:43;;;;;;;14.30;3.60;;;614.70;1408.00;;;;;;5099859;28;20461;-75
2022/07/16 03:16:09;;;;;;;15.05;4.32;;;614.60;1408.00;;;;;;5099665;28;20161;-75
2022/07/16 03:18:35;;;;;;;9.05;3.80;;;614.40;1433.60;;;;;;5099733;28;20044;-75
2022/07/16 03:21:01;;;;;;;4.60;2.90;;;614.40;1433.60;;;;;;5099843;28;20065;-75
2022/07/16 03:23:26;;;;;;;10.73;3.38;;;589.70;1433.60;;;;;;5099592;28;20031;-75
2022/07/16 03:25:52;;;;;;;10.48;3.95;;;614.40;1433.60;;;;;;5108505;28;20031;-75
2022/07/16 03:28:18;;;;;;;8.57;3.50;;;614.40;1459.20;;;;;;5086673;28;20032;-75
2022/07/16 03:30:43;;;;;;;8.70;4.25;;;589.70;1459.20;;;;;;5099601;28;20027;-75
2022/07/16 03:33:09;;;;;;;13.13;4.72;;;589.60;1484.80;;;;;;5098177;28;20028;-76
2022/07/16 03:35:35;;;;;;;19.45;5.90;;;589.60;1484.80;;;;;;5086430;28;20431;-75
2022/07/16 03:40:45;;;;;;;10.15;5.28;;;589.70;1510.40;;;;;;5099657;28;20108;-75
2022/07/16 03:43:10;;;;;;;9.80;5.00;;;589.50;1510.40;;;;;;5099544;28;20066;-75
2022/07/16 03:45:36;;;;;;;17.27;4.43;;;589.50;1510.40;;;;;;5099370;28;20026;-75
2022/07/16 03:48:02;;;;;;;8.68;4.28;;;589.40;1510.40;;;;;;5099546;28;20016;-74
2022/07/16 03:50:28;;;;;;;8.27;3.90;;;589.40;1510.40;;;;;;5099519;28;20031;-76
2022/07/16 03:52:53;;;;;;;6.82;4.43;;;589.20;1536.00;;;;;;5099509;28;20028;-75
2022/07/16 03:55:19;;;;;;;14.52;4.80;;;589.00;1536.00;;;;;;5099061;28;20028;-74
2022/07/16 03:57:45;;;;;;;9.07;4.25;;;589.10;1561.60;;;;;;5113557;28;20127;-75
2022/07/16 04:00:12;;;;;;;6.80;4.75;;;589.10;1561.60;;;;;;5073974;28;20433;-76
2022/07/16 04:02:38;;;;;;;9.80;4.13;;;589.00;1561.60;;;;;;5092570;28;20119;-77
2022/07/16 04:05:04;;;;;;;13.23;4.07;;;589.10;1561.60;;;;;;5085175;28;20054;-78
2022/07/16 04:07:30;;;;;;;7.65;4.00;;;589.00;1587.20;;;;;;5069737;28;20383;-77
2022/07/16 04:09:56;;;;;;;6.97;3.22;;;589.00;1612.80;;;;;;5096841;28;20019;-77
2022/07/16 04:12:23;;;;;;;6.45;2.88;;;589.00;1612.80;;;;;;5095371;28;20027;-76
2022/07/16 04:14:50;;;;;;;7.30;2.85;;;589.00;1612.80;;;;;;5096048;28;20073;-77
2022/07/16 04:17:15;;;;;;;5.80;2.30;;;589.10;1612.80;;;;;;5095911;28;20028;-77
2022/07/16 04:19:41;;;;;;;4.40;2.50;;;589.10;1638.40;;;;;;5096133;28;20024;-78
2022/07/16 04:22:07;;;;;;;5.50;2.60;;;589.00;1664.00;;;;;;5095873;28;20489;-77
2022/07/16 04:24:33;;;;;;;6.85;2.28;;;589.00;1664.00;;;;;;5065995;28;20115;-78
2022/07/16 04:26:59;;;;;;;4.13;2.53;;;589.00;1689.60;;;;;;5075360;28;20376;-78
2022/07/16 04:29:25;;;;;;;3.70;2.10;;;588.80;1689.60;;;;;;5095967;28;20024;-76
2022/07/16 04:31:51;;;;;;;7.50;2.38;;;564.10;1715.20;;;;;;5081643;28;20025;-76
2022/07/16 04:34:16;;;;;;;4.03;2.42;;;564.10;1740.80;;;;;;5069889;28;20024;-78
2022/07/16 04:36:42;;;;;;;6.38;2.63;;;564.00;1766.40;;;;;;5085535;28;20032;-78
2022/07/16 04:39:08;;;;;;;5.32;2.75;;;564.10;1792.00;;;;;;5095728;28;20012;-78
2022/07/16 04:41:34;;;;;;;8.45;2.88;;;563.80;1817.60;;;;;;5078043;28;20081;-79
2022/07/16 04:43:59;;;;;;;5.55;2.60;;;563.80;1843.20;;;;;;5095683;28;20473;-78
2022/07/16 04:46:25;;;;;;;5.70;2.58;;;563.60;1996.80;;;;;;5077369;28;20028;-78
2022/07/16 04:48:51;;;;;;;15.50;3.35;;;563.60;2201.60;;;;;;5095368;28;20023;-76
2022/07/16 04:51:16;;;;;;;6.45;2.80;;;563.50;2329.60;;;;;;5095375;28;20035;-76
2022/07/16 04:53:42;;;;;;;6.13;2.35;;;563.50;2380.80;;;;;;5095482;28;20074;-76
2022/07/16 04:56:08;;;;;;;8.00;2.90;;;563.50;2432.00;;;;;;5077422;28;20060;-76
2022/07/16 04:58:33;;;;;;;7.75;2.47;;;563.20;2432.00;;;;;;5089230;28;20102;-76
2022/07/16 05:00:59;;;;;;;7.15;2.88;;;563.20;2432.00;;;;;;5062887;28;20051;-77
2022/07/16 05:03:25;;;;;;;10.45;3.00;;;563.40;2432.00;;;;;;5070284;28;20032;-76
2022/07/16 05:05:51;;;;;;;5.72;2.47;;;563.40;2432.00;;;;;;5065185;28;20032;-77
2022/07/16 05:08:17;;;;;;;5.60;2.80;;;563.30;2432.00;;;;;;5058785;28;20028;-78
2022/07/16 05:10:43;;;;;;;7.95;3.00;;;563.40;2432.00;;;;;;5063838;28;20378;-79
2022/07/16 05:13:10;;;;;;;6.93;2.47;;;563.40;2432.00;;;;;;5089808;28;20424;-78
2022/07/16 05:15:36;;;;;;;7.28;3.33;;;563.30;2432.00;;;;;;5068673;28;20020;-78
2022/07/16 05:18:03;;;;;;;9.77;3.30;;;538.50;2406.40;;;;;;5070828;28;20032;-79
2022/07/16 05:20:29;;;;;;;5.43;2.72;;;538.50;2406.40;;;;;;5088511;28;20044;-76
2022/07/16 05:22:55;;;;;;;9.65;3.72;;;538.40;2406.40;;;;;;5083210;28;20028;-77
2022/07/16 05:25:22;;;;;;;8.27;3.20;;;538.30;2406.40;;;;;;5071971;28;20032;-77
2022/07/16 05:27:48;;;;;;;5.20;2.75;;;538.30;2406.40;;;;;;5067113;28;20103;-79
2022/07/16 05:30:14;;;;;;;4.63;2.55;;;538.00;2406.40;;;;;;5092295;28;20104;-79
2022/07/16 05:32:44;;;;;;;5.55;2.28;;;538.00;2406.40;;;;;;5065514;28;20024;-77
2022/07/16 05:35:11;;;;;;;6.80;2.92;;;538.00;2406.40;;;;;;5094575;28;20081;-78
2022/07/16 05:37:37;;;;;;;9.93;3.63;;;538.20;2406.40;;;;;;5076099;28;20043;-78
2022/07/16 05:40:04;;;;;;;8.05;3.60;;;538.00;2406.40;;;;;;5094599;28;20023;-77
2022/07/16 05:42:30;;;;;;;8.82;3.72;;;537.90;2406.40;;;;;;5062194;28;20024;-77
2022/07/16 05:44:55;;;;;;;5.95;2.65;;;538.20;2406.40;;;;;;5094248;28;20347;-76
2022/07/16 05:47:21;;;;;;;6.53;2.90;;;538.00;2406.40;;;;;;5094201;28;20016;-76
2022/07/16 05:49:47;;;;;;;7.63;4.57;;;538.10;2406.40;;;;;;5066684;28;20352;-77
2022/07/16 05:52:13;;;;;;;7.35;5.93;;;538.00;2406.40;;;;;;5071450;28;20074;-78
2022/07/16 05:54:38;;;;;;;10.38;5.78;;;538.30;2406.40;;;;;;5094438;28;20035;-79
2022/07/16 05:57:04;;;;;;;7.65;5.78;;;538.30;2406.40;;;;;;5082036;28;20052;-78
2022/07/16 05:59:30;;;;;;;4.72;3.70;;;538.20;2406.40;;;;;;5090081;28;20038;-78
2022/07/16 06:01:56;;;;;;;7.95;3.92;;;538.30;2406.40;;;;;;5068533;28;20028;-78
2022/07/16 06:04:21;;;;;;;7.20;4.03;;;538.00;2406.40;;;;;;5068618;28;20077;-78
2022/07/16 06:06:47;;;;;;;6.13;3.33;;;537.90;2406.40;;;;;;5070098;28;20127;-79
2022/07/16 06:09:14;;;;;;;6.30;4.28;;;537.90;2406.40;;;;;;5085644;28;20493;-77
2022/07/16 06:11:40;;;;;;;8.45;5.78;;;537.90;2406.40;;;;;;5075875;28;20020;-78
2022/07/16 06:14:06;;;;;;;6.63;3.88;;;512.90;2380.80;;;;;;5092396;28;20440;-78
2022/07/16 06:16:31;;;;;;;7.78;4.93;;;512.80;2380.80;;;;;;5061447;28;20029;-79
2022/07/16 06:18:57;;;;;;;6.15;3.63;;;512.90;2380.80;;;;;;5067661;28;20093;-79
2022/07/16 06:21:23;;;;;;;7.05;3.58;;;512.70;2380.80;;;;;;5069841;28;20016;-77
2022/07/16 06:23:49;;;;;;;7.55;3.58;;;512.70;2380.80;;;;;;5088068;28;20401;-79
2022/07/16 06:26:14;;;;;;;5.97;3.47;;;512.80;2380.80;;;;;;5067139;28;20047;-79
2022/07/16 06:28:40;;;;;;;5.60;3.15;;;537.60;2406.40;;;;;;5091913;28;20039;-79
2022/07/16 06:31:06;;;;;;;7.07;3.15;;;537.60;2406.40;;;;;;5083896;28;20016;-78
2022/07/16 06:33:31;;;;;;;7.10;3.22;;;537.80;2406.40;;;;;;5069092;28;20016;-78
2022/07/16 06:35:57;;;;;;;6.22;3.13;;;537.60;2406.40;;;;;;5090798;28;20030;-78
2022/07/16 06:38:23;;;;;;;7.45;3.53;;;537.70;2406.40;;;;;;5072282;28;20037;-78
2022/07/16 06:40:48;;;;;;;6.25;3.90;;;537.80;2406.40;;;;;;5066306;28;20075;-78
2022/07/16 06:43:14;;;;;;;7.75;3.80;;;537.70;2406.40;;;;;;5065944;28;20036;-79
2022/07/16 06:45:43;;;;;;;5.10;3.28;;;537.70;2406.40;;;;;;5061352;28;20048;-78
2022/07/16 06:48:10;;;;;;;8.75;4.28;;;537.90;2406.40;;;;;;5065272;28;20107;-79
2022/07/16 06:50:35;;;;;;;6.60;4.05;;;537.90;2406.40;;;;;;5071583;28;20107;-78
2022/07/16 06:53:01;;;;;;;9.48;4.10;;;537.90;2406.40;;;;;;5075432;28;20103;-79
2022/07/16 06:55:27;;;;;;;10.27;4.18;;;537.80;2406.40;;;;;;5060974;28;20043;-80
2022/07/16 06:57:53;;;;;;;9.25;3.67;;;538.00;2406.40;;;;;;5105699;28;20119;-78
2022/07/16 07:00:19;;;;;;;9.55;3.35;;;537.90;2406.40;;;;;;5059602;28;20064;-87
2022/07/16 07:02:44;;;;;;;10.15;3.80;;;537.90;2406.40;;;;;;5093281;28;20416;-78
2022/07/16 07:05:10;;;;;;;9.52;4.20;;;537.90;2406.40;;;;;;5093411;28;20415;-78
2022/07/16 07:07:36;;;;;;;6.97;3.92;;;537.80;2406.40;;;;;;5093291;28;20115;-79
2022/07/16 07:10:02;;;;;;;7.53;3.30;;;537.70;2406.40;;;;;;5062031;28;20029;-78
2022/07/16 07:12:28;;;;;;;6.40;3.85;;;537.70;2406.40;;;;;;5091713;28;20102;-77
2022/07/16 07:14:54;;;;;;;8.88;3.58;;;537.80;2406.40;;;;;;5092628;28;20020;-77
2022/07/16 07:17:19;;;;;;;8.00;3.85;;;538.00;2406.40;;;;;;5073858;28;20044;-76
2022/07/16 07:19:45;;;;;;;7.90;3.22;;;537.90;2406.40;;;;;;5092650;28;20043;-77
2022/07/16 07:22:11;;;;;;;6.50;3.47;;;512.90;2380.80;;;;;;5074844;28;20020;-77
2022/07/16 07:24:36;;;;;;;6.97;3.95;;;537.80;2406.40;;;;;;5074404;28;20024;-77
2022/07/16 07:27:02;;;;;;;7.45;3.85;;;537.90;2406.40;;;;;;5074553;28;20032;-77
2022/07/16 07:29:28;;;;;;;6.57;3.47;;;537.70;2406.40;;;;;;5060690;28;20067;-77
2022/07/16 07:31:54;;;;;;;7.38;4.15;;;512.70;2380.80;;;;;;5091860;28;20020;-76
2022/07/16 07:34:19;;;;;;;8.32;5.05;;;512.40;2380.80;;;;;;5063653;28;20461;-77
2022/07/16 07:36:45;;;;;;;6.45;4.10;;;512.40;2380.80;;;;;;5089415;28;20039;-76
2022/07/16 07:39:11;;;;;;;6.40;3.53;;;512.50;2380.80;;;;;;5092508;28;20020;-77
2022/07/16 07:41:37;;;;;;;7.47;4.13;;;512.90;2380.80;;;;;;5074420;28;20525;-77
2022/07/16 07:44:03;;;;;;;6.93;3.80;;;537.70;2406.40;;;;;;5074461;28;20099;-77
2022/07/16 07:46:29;;;;;;;6.47;3.88;;;537.70;2406.40;;;;;;5092513;28;20095;-78
2022/07/16 07:48:54;;;;;;;6.07;3.50;;;537.80;2406.40;;;;;;5095446;28;20046;-78
2022/07/16 07:51:20;;;;;;;6.00;3.28;;;538.10;2406.40;;;;;;5096437;28;20028;-78
2022/07/16 07:53:46;;;;;;;5.93;3.13;;;538.30;2406.40;;;;;;5077419;28;20024;-78
2022/07/16 07:56:12;;;;;;;11.52;3.35;;;538.30;2406.40;;;;;;5077320;28;20135;-84
2022/07/16 07:58:38;;;;;;;5.93;2.85;;;563.20;2432.00;;;;;;5098916;28;20016;-78
2022/07/16 08:01:04;;;;;;;5.78;3.92;;;563.30;2432.00;;;;;;5084036;28;20020;-79
2022/07/16 08:03:30;;;;;;;6.32;4.53;;;563.30;2432.00;;;;;;5071355;28;20040;-81
2022/07/16 08:05:55;;;;;;;7.68;3.60;;;563.30;2432.00;;;;;;5070693;28;20389;-79
2022/07/16 08:08:21;;;;;;;6.50;3.47;;;563.50;2432.00;;;;;;5071718;28;20056;-79
2022/07/16 08:10:47;;;;;;;8.20;3.88;;;563.60;2432.00;;;;;;5096324;28;20073;-77
2022/07/16 08:13:13;;;;;;;6.88;4.40;;;563.70;2432.00;;;;;;5062954;28;20103;-77
2022/07/16 08:15:39;;;;;;;6.78;4.45;;;563.70;2432.00;;;;;;5095348;28;20420;-77
2022/07/16 08:18:04;;;;;;;5.57;3.78;;;563.70;2432.00;;;;;;5095596;28;20040;-79
2022/07/16 08:20:30;;;;;;;7.78;4.35;;;563.90;2432.00;;;;;;5095875;28;20027;-77
2022/07/16 08:22:56;;;;;;;7.20;4.50;;;563.80;2432.00;;;;;;5091825;28;20032;-76
2022/07/16 08:28:06;;;;;;;5.45;3.25;;;563.80;2432.00;;;;;;5109510;28;20485;-79
2022/07/16 08:30:32;;;;;;;5.43;3.50;;;564.10;2432.00;;;;;;5096120;28;20027;-78
2022/07/16 08:32:57;;;;;;;6.90;3.08;;;564.00;2432.00;;;;;;5077476;28;20462;-80
2022/07/16 08:35:23;;;;;;;11.50;3.58;;;563.80;2432.00;;;;;;5095846;28;20024;-77
2022/07/16 08:37:49;;;;;;;7.05;3.58;;;564.10;2432.00;;;;;;5095648;28;20036;-78
2022/07/16 08:40:20;;;;;;;6.45;3.33;;;563.90;2432.00;;;;;;5070256;28;20398;-79
2022/07/16 08:42:47;;;;;;;8.98;3.95;;;564.00;2432.00;;;;;;5089986;28;20020;-77
2022/07/16 08:45:16;;;;;;;5.40;3.50;;;588.90;2432.00;;;;;;5085042;28;20470;-78
2022/07/16 08:47:42;;;;;;;7.93;4.38;;;588.90;2432.00;;;;;;5077019;28;20039;-77
2022/07/16 08:50:11;;;;;;;7.30;3.75;;;589.00;2432.00;;;;;;5074162;28;20024;-78
2022/07/16 08:52:40;;;;;;;7.95;4.30;;;589.20;2432.00;;;;;;5076983;28;20028;-79
2022/07/16 08:55:07;;;;;;;6.55;4.28;;;589.30;2432.00;;;;;;5077412;28;20063;-81
2022/07/16 08:57:35;;;;;;;9.90;4.22;;;589.50;2432.00;;;;;;5091411;28;20048;-85
2022/07/16 09:00:03;;;;;;;7.72;4.10;;;589.50;2432.00;;;;;;5077896;28;20040;-84
2022/07/16 09:02:29;;;;;;;6.32;4.20;;;589.60;2432.00;;;;;;5077306;28;20561;-82
2022/07/16 09:04:54;;;;;;;9.00;4.60;;;589.60;2432.00;;;;;;5077016;28;20051;-79
2022/07/16 09:07:21;;;;;;;7.47;4.15;;;589.70;2432.00;;;;;;5077281;28;20115;-80
2022/07/16 09:09:47;;;;;;;6.07;4.35;;;614.50;2432.00;;;;;;5078328;28;20106;-81
2022/07/16 09:12:32;;;;;;;5.75;3.85;;;614.40;2432.00;;;;;;5103592;28;20077;-81
2022/07/16 09:14:58;;;;;;;10.13;4.28;;;614.40;2432.00;;;;;;5080918;28;20473;-80
2022/07/16 09:17:24;;;;;;;6.18;3.65;;;614.70;2432.00;;;;;;5089131;28;20106;-81
2022/07/16 09:19:50;;;;;;;7.95;4.18;;;614.80;2432.00;;;;;;5090052;28;21063;-82
2022/07/16 09:22:16;;;;;;;7.18;5.25;;;614.80;2432.00;;;;;;5081682;28;20020;-80
2022/07/16 09:24:52;;;;;;;9.07;4.80;;;614.90;2432.00;;;;;;5077586;28;20028;-88
2022/07/16 09:27:27;;;;;;;6.13;4.60;;;614.90;2432.00;;;;;;5077955;28;20039;-88
2022/07/16 09:30:02;;;;;;;8.57;4.25;;;614.90;2432.00;;;;;;5077656;28;20028;-83
2022/07/16 09:32:36;;;;;;;6.15;3.80;;;615.10;2432.00;;;;;;5077055;28;20446;-78
2022/07/16 09:35:10;;;;;;;8.25;4.60;;;615.30;2432.00;;;;;;5076554;28;20434;-84
2022/07/16 09:37:59;;;;;;;7.10;3.70;;;640.00;2432.00;;;;;;5076234;28;20039;-81
2022/07/16 09:40:38;;;;;;;6.22;3.97;;;640.00;2432.00;;;;;;5091016;28;20028;-77
2022/07/16 09:43:24;;;;;;;6.10;4.13;;;615.30;2432.00;;;;;;5094316;28;20035;-79
2022/07/16 09:46:01;;;;;;;12.15;7.32;;;640.10;2432.00;;;;;;5076373;28;20202;-80
2022/07/16 09:48:35;;;;;;;11.07;4.93;;;640.10;2432.00;;;;;;5094677;28;20107;-79
2022/07/16 09:51:22;;;;;;;7.47;3.83;;;640.50;2432.00;;;;;;5094704;28;20020;-81
2022/07/16 09:53:50;;;;;;;6.90;3.80;;;640.70;2355.20;;;;;;5076409;28;20048;-79
2022/07/16 09:56:42;;;;;;;4.93;3.55;;;640.80;2278.40;;;;;;5076145;28;20078;-86
2022/07/16 09:59:07;;;;;;;6.63;3.60;;;640.90;2355.20;;;;;;5073010;28;20115;-81
2022/07/16 10:01:33;;;;;;;4.93;3.33;;;665.70;2329.60;;;;;;5094321;28;20123;-83
2022/07/16 10:03:59;;;;;;;7.35;3.47;;;665.90;2227.20;;;;;;5094481;28;20024;-82
2022/07/16 10:06:27;;;;;;;5.55;4.32;;;665.90;2176.00;;;;;;5075896;28;20060;-79
2022/07/16 10:08:53;;;;;;;6.30;3.70;;;666.20;2201.60;;;;;;5094555;28;20024;-85
2022/07/16 10:11:19;;;;;;;5.65;3.70;;;666.10;2124.80;;;;;;5075371;28;20032;-78
2022/07/16 10:13:47;;;;;;;6.30;3.55;;;666.30;2150.40;;;;;;5093963;28;20102;-85
2022/07/16 10:16:13;;;;;;;7.13;5.00;;;691.20;2150.40;;;;;;5090850;28;20024;-81
2022/07/16 10:18:46;;;;;;;10.43;5.57;;;691.30;2073.60;;;;;;5092899;28;20116;-80
2022/07/16 10:21:19;;;;;;;4.43;3.40;;;691.40;2073.60;;;;;;5092420;28;20084;-78
2022/07/16 10:23:50;;;;;;;5.15;3.35;;;691.50;2022.40;;;;;;5092350;28;20028;-80
2022/07/16 10:26:19;;;;;;;4.90;3.50;;;691.70;1920.00;;;;;;5075724;28;20550;-79
2022/07/16 10:28:50;;;;;;;26.30;22.05;;;691.70;1894.40;;;;;;5093649;28;20024;-79
2022/07/16 10:31:41;;;;;;;7.60;4.65;;;691.70;1996.80;;;;;;5075433;28;20032;-81
2022/07/16 10:34:12;;;;;;;10.15;8.00;;;691.90;1971.20;;;;;;5076065;28;20054;-78
2022/07/16 10:36:55;;;;;;;8.45;5.38;;;691.90;1996.80;;;;;;5075096;28;20040;-77
2022/07/16 10:39:23;;;;;;;8.23;4.13;;;692.00;1920.00;;;;;;5075479;28;20028;-77
2022/07/16 10:41:50;;;;;;;8.02;3.85;;;692.10;1868.80;;;;;;5093654;28;20059;-78
2022/07/16 10:44:17;;;;;;;14.80;4.40;;;716.80;1894.40;;;;;;5093593;28;20035;-80
2022/07/16 10:47:00;;;;;;;19.88;13.80;;;717.10;1868.80;;;;;;5087436;28;20024;-77
2022/07/16 10:49:29;;;;;;;6.97;4.22;;;717.10;1945.60;;;;;;5077874;28;20032;-82
2022/07/16 10:52:00;;;;;;;6.03;4.00;;;717.20;1817.60;;;;;;5092220;28;20478;-79
2022/07/16 10:54:35;;;;;;;123.50;83.65;;;717.30;1766.40;;;;;;5075314;28;20119;-82
2022/07/16 10:57:06;;;;;;;7.28;5.03;;;717.30;1817.60;;;;;;5088571;28;20055;-80
2022/07/16 10:59:38;;;;;;;5.90;3.75;;;717.50;1740.80;;;;;;5113864;28;20477;-78
2022/07/16 11:02:09;;;;;;;5.40;3.20;;;717.50;1740.80;;;;;;5113841;28;20039;-77
2022/07/16 11:04:40;;;;;;;7.05;4.38;;;742.40;1740.80;;;;;;5113500;28;20028;-77
2022/07/16 11:07:11;;;;;;;8.45;4.70;;;742.40;1689.60;;;;;;5113707;28;20016;-79
2022/07/16 11:09:43;;;;;;;9.60;4.00;;;742.50;1689.60;;;;;;5113548;28;20406;-79
2022/07/16 11:12:12;;;;;;;5.47;3.97;;;742.60;1715.20;;;;;;5095256;28;20181;-76
2022/07/16 11:14:40;;;;;;;5.38;3.80;;;742.50;1689.60;;;;;;5113184;28;20422;-77
2022/07/16 11:17:06;;;;;;;6.28;3.53;;;742.60;1715.20;;;;;;5099859;28;20477;-76
2022/07/16 11:19:48;;;;;;;9.35;3.70;;;742.90;1664.00;;;;;;5092721;28;20142;-78
2022/07/16 11:22:20;;;;;;;6.93;3.67;;;742.90;1664.00;;;;;;5082972;28;20028;-77
2022/07/16 11:24:51;;;;;;;7.25;3.58;;;742.80;1689.60;;;;;;5114617;28;20096;-80
2022/07/16 11:27:26;;;;;;;4.53;3.30;;;742.90;1689.60;;;;;;5117252;28;20031;-76
2022/07/16 11:30:03;;;;;;;9.05;3.95;;;742.90;1664.00;;;;;;5117428;28;20038;-77
2022/07/16 11:32:29;;;;;;;5.07;4.03;;;743.10;1612.80;;;;;;5099143;28;20030;-79
2022/07/16 11:34:55;;;;;;;4.72;3.42;;;743.20;1612.80;;;;;;5098687;28;20122;-77
2022/07/16 11:37:21;;;;;;;10.43;4.05;;;743.30;1587.20;;;;;;5116702;28;20084;-78
2022/07/16 11:39:48;;;;;;;5.32;2.92;;;768.10;1587.20;;;;;;5116473;28;20027;-78
2022/07/16 11:42:18;;;;;;;5.45;3.33;;;768.10;1561.60;;;;;;5116631;28;20020;-78
2022/07/16 11:44:45;;;;;;;5.20;3.47;;;743.30;1536.00;;;;;;5114088;28;20012;-78
2022/07/16 11:47:11;;;;;;;5.35;3.42;;;768.20;1561.60;;;;;;5098617;28;20028;-80
2022/07/16 11:49:41;;;;;;;5.20;3.78;;;768.30;1561.60;;;;;;5116465;28;20015;-78
2022/07/16 11:52:08;;;;;;;5.50;3.30;;;768.20;1561.60;;;;;;5101075;28;20026;-78
2022/07/16 11:54:40;;;;;;;9.15;3.60;;;768.30;1459.20;;;;;;5116549;28;20038;-78
2022/07/16 11:57:08;;;;;;;6.65;3.05;;;768.50;1459.20;;;;;;5115784;28;20047;-77
2022/07/16 11:59:34;;;;;;;6.38;3.38;;;768.40;1459.20;;;;;;5116714;28;20030;-78
2022/07/16 12:02:14;;;;;;;5.10;3.35;;;768.50;1484.80;;;;;;5098672;28;20059;-77
2022/07/16 12:04:49;;;;;;;5.93;3.05;;;768.60;1484.80;;;;;;5116855;28;20099;-77
2022/07/16 12:07:24;;;;;;;6.97;3.17;;;768.90;1433.60;;;;;;5116618;28;20089;-77
2022/07/16 12:10:04;;;;;;;4.60;3.20;;;793.70;1459.20;;;;;;5116525;28;20020;-77
2022/07/16 12:12:34;;;;;;;5.05;3.03;;;793.60;1433.60;;;;;;5097949;28;20032;-76
2022/07/16 12:15:00;;;;;;;7.85;3.50;;;793.60;1382.40;;;;;;5116539;28;20477;-78
2022/07/16 12:17:34;;;;;;;4.78;2.95;;;793.60;1356.80;;;;;;5097999;28;20035;-76
2022/07/16 12:20:08;;;;;;;4.70;2.92;;;793.70;1382.40;;;;;;5097814;28;20030;-76
2022/07/16 12:22:48;;;;;;;4.73;3.10;;;793.70;1331.20;;;;;;5116083;28;20205;-77
2022/07/16 12:25:32;;;;;;;5.50;2.40;;;793.90;1356.80;;;;;;5116237;28;20272;-77
2022/07/16 12:28:08;;;;;;;4.13;2.88;;;794.20;1356.80;;;;;;5116355;28;20427;-77